createdAt,value
2018-04-30T00:00:08.343Z,99.50
2018-04-30T00:02:36.902Z,99.90
2018-04-30T00:05:05.185Z,99.90
2018-04-30T00:07:33.498Z,99.90
2018-04-30T00:10:02.591Z,99.90
2018-04-30T00:12:31.646Z,99.90
2018-04-30T00:14:59.931Z,99.90
2018-04-30T00:17:28.442Z,99.90
2018-04-30T00:19:57.483Z,99.90
2018-04-30T00:22:25.787Z,99.90
2018-04-30T00:24:54.115Z,99.90
2018-04-30T00:27:22.400Z,99.90
2018-04-30T00:29:50.690Z,99.90
2018-04-30T00:32:19.015Z,99.90
2018-04-30T00:34:47.299Z,99.90
2018-04-30T00:37:15.589Z,99.90
2018-04-30T00:39:43.953Z,99.90
2018-04-30T00:42:12.869Z,99.90
2018-04-30T00:44:41.222Z,99.90
2018-04-30T00:47:09.565Z,99.90
2018-04-30T00:49:37.849Z,99.90
2018-04-30T00:52:06.205Z,99.90
2018-04-30T00:54:51.917Z,99.90
2018-04-30T00:57:20.481Z,99.90
2018-04-30T00:59:48.771Z,99.90
2018-04-30T01:02:17.054Z,99.90
2018-04-30T01:04:45.405Z,99.90
2018-04-30T01:07:13.939Z,99.90
2018-04-30T01:09:42.261Z,99.90
2018-04-30T01:12:10.742Z,99.90
2018-04-30T01:14:39.032Z,99.90
2018-04-30T01:17:07.328Z,99.90
2018-04-30T01:19:35.671Z,99.90
2018-04-30T01:22:04.019Z,99.90
2018-04-30T01:24:32.294Z,99.90
2018-04-30T01:27:00.615Z,99.90
2018-04-30T01:29:28.900Z,99.90
2018-04-30T01:31:57.173Z,99.90
2018-04-30T01:34:25.529Z,99.90
2018-04-30T01:36:54.559Z,99.90
2018-04-30T01:39:22.834Z,99.90
2018-04-30T01:41:51.161Z,99.90
2018-04-30T01:44:20.203Z,99.90
2018-04-30T01:46:48.486Z,99.90
2018-04-30T01:49:16.786Z,99.90
2018-04-30T01:51:45.094Z,99.90
2018-04-30T01:54:13.836Z,99.90
2018-04-30T01:56:42.126Z,99.90
2018-04-30T01:59:10.403Z,99.90
2018-04-30T02:01:38.950Z,99.90
2018-04-30T02:04:07.837Z,99.90
2018-04-30T02:06:36.669Z,99.90
2018-04-30T02:09:05.741Z,99.90
2018-04-30T02:11:34.344Z,99.90
2018-04-30T02:14:03.502Z,99.90
2018-04-30T02:16:32.394Z,99.90
2018-04-30T02:19:00.749Z,99.90
2018-04-30T02:21:29.155Z,99.90
2018-04-30T02:23:57.559Z,99.90
2018-04-30T02:26:25.865Z,99.90
2018-04-30T02:28:54.248Z,99.90
2018-04-30T02:31:22.551Z,99.90
2018-04-30T02:33:50.920Z,99.90
2018-04-30T02:36:19.212Z,99.90
2018-04-30T02:38:50.539Z,99.90
2018-04-30T02:41:19.271Z,99.90
2018-04-30T02:43:48.576Z,99.90
2018-04-30T02:46:17.450Z,99.90
2018-04-30T02:48:45.766Z,99.90
2018-04-30T02:51:14.030Z,99.90
2018-04-30T02:53:43.367Z,99.90
2018-04-30T02:56:11.659Z,99.90
2018-04-30T02:58:39.963Z,99.90
2018-04-30T03:01:08.245Z,99.90
2018-04-30T03:03:36.671Z,99.90
2018-04-30T03:06:05.679Z,99.90
2018-04-30T03:08:34.319Z,99.90
2018-04-30T03:11:03.003Z,99.90
2018-04-30T03:13:31.316Z,99.90
2018-04-30T03:16:00.362Z,99.90
2018-04-30T03:18:28.667Z,99.90
2018-04-30T03:20:56.943Z,99.90
2018-04-30T03:23:25.263Z,99.90
2018-04-30T03:25:53.539Z,99.90
2018-04-30T03:28:21.819Z,99.90
2018-04-30T03:30:50.127Z,99.90
2018-04-30T03:33:18.772Z,99.90
2018-04-30T03:35:47.338Z,99.90
2018-04-30T03:38:15.615Z,99.90
2018-04-30T03:40:43.942Z,99.90
2018-04-30T03:43:12.262Z,99.90
2018-04-30T03:45:40.535Z,99.90
2018-04-30T03:48:08.827Z,99.90
2018-04-30T03:50:37.922Z,99.90
2018-04-30T03:53:06.962Z,99.90
2018-04-30T03:55:35.246Z,99.90
2018-04-30T03:58:03.591Z,99.90
2018-04-30T04:00:49.490Z,99.90
2018-04-30T04:03:36.019Z,99.90
2018-04-30T04:19:39.575Z,99.90
2018-04-30T04:22:07.905Z,99.90
2018-04-30T04:24:36.187Z,99.90
2018-04-30T04:27:04.503Z,99.90
2018-04-30T04:29:33.379Z,99.90
2018-04-30T04:32:01.663Z,99.90
2018-04-30T04:34:29.975Z,99.90
2018-04-30T04:36:58.290Z,99.90
2018-04-30T04:39:26.571Z,99.90
2018-04-30T04:41:54.919Z,99.90
2018-04-30T04:44:23.203Z,99.90
2018-04-30T04:46:51.487Z,99.90
2018-04-30T04:49:19.798Z,99.90
2018-04-30T04:51:48.087Z,99.90
2018-04-30T04:54:17.053Z,99.90
2018-04-30T04:56:46.107Z,99.90
2018-04-30T04:59:14.403Z,99.90
2018-04-30T05:01:43.193Z,99.90
2018-04-30T05:04:11.475Z,99.90
2018-04-30T05:06:39.763Z,99.90
2018-04-30T05:09:08.530Z,99.90
2018-04-30T05:11:36.819Z,99.90
2018-04-30T05:14:05.691Z,99.90
2018-04-30T05:16:34.031Z,99.90
2018-04-30T05:19:02.968Z,99.90
2018-04-30T05:21:31.251Z,99.90
2018-04-30T05:24:00.156Z,99.90
2018-04-30T05:26:28.863Z,99.90
2018-04-30T05:28:57.850Z,99.90
2018-04-30T05:31:26.934Z,99.90
2018-04-30T05:33:55.226Z,99.90
2018-04-30T05:36:24.282Z,99.90
2018-04-30T05:38:52.602Z,99.90
2018-04-30T05:41:21.654Z,99.90
2018-04-30T05:43:50.867Z,99.90
2018-04-30T05:46:19.367Z,99.90
2018-04-30T05:48:47.655Z,99.90
2018-04-30T05:51:16.298Z,99.90
2018-04-30T05:53:44.643Z,99.90
2018-04-30T05:56:12.919Z,99.90
2018-04-30T05:58:41.210Z,99.90
2018-04-30T06:01:09.543Z,99.90
2018-04-30T06:03:37.815Z,99.90
2018-04-30T06:06:06.202Z,99.90
2018-04-30T06:08:34.507Z,99.90
2018-04-30T06:11:02.615Z,99.90
2018-04-30T06:13:30.891Z,99.90
2018-04-30T06:15:59.172Z,99.90
2018-04-30T06:18:28.210Z,99.90
2018-04-30T06:20:57.019Z,99.90
2018-04-30T06:23:25.306Z,99.90
2018-04-30T06:25:53.803Z,99.90
2018-04-30T06:28:22.078Z,99.90
2018-04-30T06:30:50.368Z,99.90
2018-04-30T06:33:18.927Z,99.90
2018-04-30T06:35:47.222Z,99.90
2018-04-30T06:38:15.487Z,99.90
2018-04-30T06:40:43.807Z,99.90
2018-04-30T06:43:12.864Z,99.90
2018-04-30T06:45:42.579Z,99.90
2018-04-30T06:48:11.166Z,99.90
2018-04-30T06:50:39.610Z,99.90
2018-04-30T06:53:08.350Z,99.90
2018-04-30T06:55:36.762Z,99.90
2018-04-30T06:58:05.804Z,99.90
2018-04-30T07:00:37.233Z,99.90
2018-04-30T07:03:05.518Z,99.90
2018-04-30T07:05:33.797Z,99.90
2018-04-30T07:08:02.115Z,99.90
2018-04-30T07:10:31.859Z,99.90
2018-04-30T07:13:00.226Z,97.90
2018-04-30T07:15:30.291Z,98.00
2018-04-30T07:17:59.092Z,98.00
2018-04-30T07:20:27.455Z,98.70
2018-04-30T07:22:55.762Z,99.20
2018-04-30T07:25:24.057Z,98.70
2018-04-30T07:27:52.851Z,98.00
2018-04-30T07:30:21.111Z,97.40
2018-04-30T07:32:49.391Z,96.20
2018-04-30T07:35:17.671Z,93.90
2018-04-30T07:37:45.870Z,93.10
2018-04-30T07:40:14.147Z,93.40
2018-04-30T07:42:43.191Z,91.10
2018-04-30T07:45:11.919Z,91.10
2018-04-30T07:47:40.959Z,91.30
2018-04-30T07:50:09.303Z,91.40
2018-04-30T07:52:37.619Z,90.80
2018-04-30T07:55:05.899Z,92.00
2018-04-30T07:57:37.711Z,90.00
2018-04-30T08:00:06.534Z,87.50
2018-04-30T08:02:35.603Z,90.20
2018-04-30T08:05:03.879Z,87.20
2018-04-30T08:07:32.762Z,90.40
2018-04-30T08:10:01.747Z,85.60
2018-04-30T08:12:30.182Z,87.30
2018-04-30T08:14:58.539Z,86.30
2018-04-30T08:17:26.803Z,85.60
2018-04-30T08:19:55.097Z,82.70
2018-04-30T08:22:23.706Z,79.30
2018-04-30T08:24:51.982Z,79.00
2018-04-30T08:27:20.259Z,77.30
2018-04-30T08:29:49.758Z,72.70
2018-04-30T08:32:18.041Z,76.50
2018-04-30T08:34:46.319Z,75.00
2018-04-30T08:37:14.635Z,70.90
2018-04-30T08:39:42.921Z,68.40
2018-04-30T08:42:11.215Z,70.70
2018-04-30T08:44:39.556Z,68.50
2018-04-30T08:47:07.890Z,69.40
2018-04-30T08:49:36.175Z,64.90
2018-04-30T08:52:05.122Z,64.80
2018-04-30T08:54:33.417Z,66.30
2018-04-30T08:57:01.755Z,61.30
2018-04-30T08:59:29.854Z,60.60
2018-04-30T09:01:58.347Z,59.20
2018-04-30T09:04:27.193Z,61.20
2018-04-30T09:06:55.493Z,60.30
2018-04-30T09:09:24.455Z,59.20
2018-04-30T09:11:53.738Z,60.80
2018-04-30T09:14:22.039Z,57.30
2018-04-30T09:16:51.120Z,56.50
2018-04-30T09:19:19.425Z,55.40
2018-04-30T09:21:47.699Z,56.70
2018-04-30T09:24:16.215Z,54.70
2018-04-30T09:26:44.547Z,52.20
2018-04-30T09:29:12.894Z,52.30
2018-04-30T09:31:42.183Z,54.60
2018-04-30T09:34:10.686Z,54.50
2018-04-30T09:36:39.190Z,54.30
2018-04-30T09:39:07.479Z,50.70
2018-04-30T09:41:35.870Z,50.40
2018-04-30T09:44:05.339Z,49.90
2018-04-30T09:46:33.939Z,49.80
2018-04-30T09:49:02.355Z,48.40
2018-04-30T09:51:30.631Z,48.80
2018-04-30T09:53:58.910Z,48.30
2018-04-30T09:56:27.211Z,48.10
2018-04-30T09:58:55.505Z,47.50
2018-04-30T10:01:23.982Z,49.80
2018-04-30T10:03:52.314Z,48.90
2018-04-30T10:06:20.676Z,48.60
2018-04-30T10:08:49.659Z,47.90
2018-04-30T10:11:18.383Z,47.20
2018-04-30T10:13:47.844Z,47.00
2018-04-30T10:16:16.122Z,47.70
2018-04-30T10:18:45.410Z,46.80
2018-04-30T10:21:13.694Z,45.30
2018-04-30T10:23:42.140Z,46.60
2018-04-30T10:26:10.368Z,46.20
2018-04-30T10:28:39.511Z,45.30
2018-04-30T10:31:07.726Z,45.20
2018-04-30T10:33:36.038Z,43.40
2018-04-30T10:36:05.081Z,41.70
2018-04-30T10:38:33.362Z,41.80
2018-04-30T10:41:02.054Z,44.00
2018-04-30T10:43:30.731Z,42.90
2018-04-30T10:45:59.523Z,42.90
2018-04-30T10:48:27.799Z,42.00
2018-04-30T10:50:56.079Z,41.50
2018-04-30T10:53:24.415Z,42.10
2018-04-30T10:55:52.755Z,42.50
2018-04-30T10:58:21.327Z,42.70
2018-04-30T11:00:49.628Z,43.10
2018-04-30T11:03:17.914Z,44.50
2018-04-30T11:05:46.263Z,45.40
2018-04-30T11:08:14.539Z,44.00
2018-04-30T11:10:42.814Z,44.10
2018-04-30T11:13:11.126Z,42.40
2018-04-30T11:15:40.447Z,42.30
2018-04-30T11:18:08.751Z,42.20
2018-04-30T11:20:37.234Z,42.80
2018-04-30T11:23:05.518Z,42.20
2018-04-30T11:25:33.798Z,41.10
2018-04-30T11:28:02.377Z,42.30
2018-04-30T11:30:30.659Z,42.10
2018-04-30T11:32:59.366Z,39.90
2018-04-30T11:35:27.710Z,37.80
2018-04-30T11:37:56.012Z,37.80
2018-04-30T11:40:24.878Z,38.60
2018-04-30T11:42:53.169Z,39.50
2018-04-30T11:45:22.214Z,37.40
2018-04-30T11:47:50.538Z,39.30
2018-04-30T11:50:19.835Z,38.10
2018-04-30T11:52:48.126Z,37.10
2018-04-30T11:55:16.467Z,39.00
2018-04-30T11:57:44.760Z,38.70
2018-04-30T12:00:13.049Z,38.40
2018-04-30T12:02:41.390Z,37.80
2018-04-30T12:05:09.727Z,36.40
2018-04-30T12:07:38.018Z,34.30
2018-04-30T12:10:06.357Z,35.00
2018-04-30T12:12:34.939Z,34.70
2018-04-30T12:15:03.235Z,34.00
2018-04-30T12:17:31.583Z,36.40
2018-04-30T12:19:59.879Z,35.00
2018-04-30T12:22:28.166Z,34.10
2018-04-30T12:24:56.515Z,33.20
2018-04-30T12:27:24.826Z,33.80
2018-04-30T12:29:53.278Z,34.30
2018-04-30T12:32:21.542Z,31.80
2018-04-30T12:34:49.839Z,33.40
2018-04-30T12:37:18.134Z,32.30
2018-04-30T12:39:48.187Z,31.50
2018-04-30T12:42:16.573Z,31.40
2018-04-30T12:44:44.867Z,34.60
2018-04-30T12:47:13.211Z,34.60
2018-04-30T12:49:41.573Z,33.50
2018-04-30T12:52:09.808Z,35.20
2018-04-30T12:54:38.754Z,35.60
2018-04-30T12:57:07.207Z,36.10
2018-04-30T12:59:35.499Z,37.40
2018-04-30T13:02:03.850Z,36.50
2018-04-30T13:04:32.139Z,35.80
2018-04-30T13:07:00.435Z,36.00
2018-04-30T13:09:29.514Z,35.50
2018-04-30T13:11:58.094Z,35.40
2018-04-30T13:14:26.827Z,35.70
2018-04-30T13:16:55.159Z,34.40
2018-04-30T13:19:23.439Z,34.80
2018-04-30T13:21:51.962Z,35.00
2018-04-30T13:24:20.486Z,35.90
2018-04-30T13:26:48.966Z,36.70
2018-04-30T13:29:17.262Z,37.00
2018-04-30T13:31:45.587Z,37.90
2018-04-30T13:34:13.874Z,36.50
2018-04-30T13:36:42.151Z,36.00
2018-04-30T13:39:11.243Z,35.30
2018-04-30T13:41:39.535Z,35.40
2018-04-30T13:44:08.435Z,38.30
2018-04-30T13:46:36.735Z,38.90
2018-04-30T13:49:05.723Z,39.90
2018-04-30T13:51:34.059Z,38.40
2018-04-30T13:54:02.643Z,38.70
2018-04-30T13:56:30.918Z,38.10
2018-04-30T13:58:59.238Z,37.90
2018-04-30T14:01:27.522Z,39.00
2018-04-30T14:03:55.807Z,39.90
2018-04-30T14:06:25.646Z,40.30
2018-04-30T14:08:54.843Z,40.70
2018-04-30T14:11:23.374Z,40.70
2018-04-30T14:13:51.684Z,40.90
2018-04-30T14:16:19.963Z,40.50
2018-04-30T14:18:49.028Z,41.70
2018-04-30T14:21:17.338Z,41.70
2018-04-30T14:23:46.226Z,43.00
2018-04-30T14:26:14.530Z,44.00
2018-04-30T14:28:42.821Z,43.00
2018-04-30T14:31:11.145Z,43.00
2018-04-30T14:33:39.430Z,43.90
2018-04-30T14:36:07.738Z,56.10
2018-04-30T14:38:36.017Z,53.20
2018-04-30T14:41:04.450Z,54.60
2018-04-30T14:43:32.760Z,58.10
2018-04-30T14:46:01.055Z,57.10
2018-04-30T14:48:29.338Z,61.60
2018-04-30T14:50:57.675Z,60.60
2018-04-30T14:53:25.959Z,61.90
2018-04-30T14:55:54.239Z,61.70
2018-04-30T14:58:22.605Z,60.80
2018-04-30T15:00:51.463Z,64.00
2018-04-30T15:03:19.958Z,69.10
2018-04-30T15:05:48.275Z,71.00
2018-04-30T15:08:17.020Z,74.50
2018-04-30T15:10:45.602Z,69.90
2018-04-30T15:13:14.299Z,66.00
2018-04-30T15:15:42.574Z,62.20
2018-04-30T15:18:10.859Z,58.00
2018-04-30T15:20:39.584Z,57.30
2018-04-30T15:23:07.859Z,55.60
2018-04-30T15:25:36.149Z,53.10
2018-04-30T15:28:04.980Z,53.60
2018-04-30T15:30:33.271Z,53.50
2018-04-30T15:33:01.563Z,53.40
2018-04-30T15:35:29.884Z,53.10
2018-04-30T15:37:58.162Z,50.80
2018-04-30T15:40:26.443Z,51.50
2018-04-30T15:42:54.904Z,51.20
2018-04-30T15:45:23.416Z,51.30
2018-04-30T15:47:51.706Z,51.50
2018-04-30T15:50:20.011Z,51.30
2018-04-30T15:52:48.615Z,51.40
2018-04-30T15:55:16.946Z,51.80
2018-04-30T15:57:45.327Z,51.70
2018-04-30T16:00:13.607Z,51.60
2018-04-30T16:02:41.883Z,52.40
2018-04-30T16:05:10.207Z,53.00
2018-04-30T16:07:38.483Z,53.00
2018-04-30T16:10:06.763Z,52.80
2018-04-30T16:12:35.790Z,53.20
2018-04-30T16:15:04.066Z,54.00
2018-04-30T16:17:32.999Z,55.10
2018-04-30T16:20:01.332Z,58.90
2018-04-30T16:22:29.730Z,61.90
2018-04-30T16:24:58.017Z,67.10
2018-04-30T16:27:26.204Z,79.00
2018-04-30T16:29:54.408Z,87.20
2018-04-30T16:32:22.703Z,88.60
2018-04-30T16:34:51.047Z,90.30
2018-04-30T16:37:19.330Z,92.60
2018-04-30T16:39:47.615Z,92.60
2018-04-30T16:42:15.942Z,93.70
2018-04-30T16:44:44.220Z,92.90
2018-04-30T16:47:12.599Z,91.20
2018-04-30T16:49:40.850Z,90.40
2018-04-30T16:52:09.699Z,88.60
2018-04-30T16:54:38.171Z,90.00
2018-04-30T16:57:06.486Z,88.60
2018-04-30T16:59:35.306Z,88.50
2018-04-30T17:02:03.698Z,87.60
2018-04-30T17:04:32.022Z,88.80
2018-04-30T17:07:00.340Z,86.50
2018-04-30T17:09:28.619Z,83.10
2018-04-30T17:11:56.922Z,83.50
2018-04-30T17:14:25.203Z,83.90
2018-04-30T17:16:53.482Z,86.30
2018-04-30T17:19:22.154Z,86.30
2018-04-30T17:21:50.979Z,87.40
2018-04-30T17:24:20.115Z,85.70
2018-04-30T17:26:49.627Z,84.00
2018-04-30T17:29:17.910Z,84.00
2018-04-30T17:31:46.195Z,82.60
2018-04-30T17:34:14.532Z,81.10
2018-04-30T17:36:43.067Z,83.00
2018-04-30T17:39:11.363Z,84.60
2018-04-30T17:41:40.934Z,87.50
2018-04-30T17:44:09.216Z,87.40
2018-04-30T17:46:37.502Z,88.90
2018-04-30T17:49:05.840Z,89.50
2018-04-30T17:51:34.247Z,90.20
2018-04-30T17:54:02.585Z,90.50
2018-04-30T17:56:30.985Z,90.30
2018-04-30T17:58:59.259Z,90.90
2018-04-30T18:01:27.552Z,91.00
2018-04-30T18:03:55.875Z,91.20
2018-04-30T18:06:24.158Z,92.30
2018-04-30T18:08:52.434Z,92.00
2018-04-30T18:11:21.742Z,92.30
2018-04-30T18:13:50.206Z,92.30
2018-04-30T18:16:18.754Z,92.90
2018-04-30T18:18:47.059Z,93.10
2018-04-30T18:21:16.113Z,93.20
2018-04-30T18:23:44.426Z,93.20
2018-04-30T18:26:12.753Z,93.30
2018-04-30T18:28:41.035Z,93.40
2018-04-30T18:31:09.738Z,93.70
2018-04-30T18:33:38.051Z,93.90
2018-04-30T18:36:06.347Z,94.30
2018-04-30T18:38:35.329Z,94.50
2018-04-30T18:41:03.886Z,94.00
2018-04-30T18:43:32.775Z,95.20
2018-04-30T18:46:01.090Z,94.10
2018-04-30T18:48:29.383Z,95.00
2018-04-30T18:50:58.113Z,94.40
2018-04-30T18:53:26.694Z,94.50
2018-04-30T18:55:54.975Z,94.90
2018-04-30T18:58:23.253Z,95.20
2018-04-30T19:00:51.611Z,95.40
2018-04-30T19:03:19.887Z,95.50
2018-04-30T19:05:48.165Z,96.30
2018-04-30T19:08:16.467Z,95.80
2018-04-30T19:10:45.451Z,96.40
2018-04-30T19:13:13.627Z,96.90
2018-04-30T19:15:41.719Z,97.50
2018-04-30T19:18:10.977Z,98.10
2018-04-30T19:20:39.306Z,98.70
2018-04-30T19:23:07.599Z,98.50
2018-04-30T19:25:35.959Z,98.50
2018-04-30T19:28:04.246Z,97.70
2018-04-30T19:30:32.523Z,97.40
2018-04-30T19:33:01.092Z,97.30
2018-04-30T19:35:30.143Z,97.00
2018-04-30T19:37:58.482Z,96.90
2018-04-30T19:40:27.534Z,97.40
2018-04-30T19:42:58.766Z,97.30
2018-04-30T19:45:27.747Z,97.50
2018-04-30T19:47:56.008Z,97.40
2018-04-30T19:50:24.309Z,97.70
2018-04-30T19:52:52.698Z,97.70
2018-04-30T19:55:21.691Z,97.80
2018-04-30T19:57:49.868Z,97.80
2018-04-30T20:00:18.356Z,97.70
2018-04-30T20:02:46.640Z,98.20
2018-04-30T20:05:14.938Z,98.10
2018-04-30T20:07:43.293Z,97.30
2018-04-30T20:10:11.602Z,96.00
2018-04-30T20:12:40.647Z,95.10
2018-04-30T20:15:08.962Z,95.00
2018-04-30T20:17:37.238Z,94.80
2018-04-30T20:20:06.042Z,93.60
2018-04-30T20:22:34.299Z,92.00
2018-04-30T20:25:02.935Z,91.40
2018-04-30T20:27:31.258Z,91.00
2018-04-30T20:29:59.537Z,90.90
2018-04-30T20:32:28.555Z,90.10
2018-04-30T20:34:57.590Z,89.60
2018-04-30T20:37:26.734Z,89.50
2018-04-30T20:39:55.432Z,89.30
2018-04-30T20:42:25.082Z,90.10
2018-04-30T20:44:53.762Z,88.60
2018-04-30T20:47:22.735Z,88.10
2018-04-30T20:49:51.672Z,87.40
2018-04-30T20:52:19.954Z,86.50
2018-04-30T20:54:48.699Z,87.70
2018-04-30T20:57:16.981Z,88.40
2018-04-30T20:59:45.265Z,87.30
2018-04-30T21:02:13.595Z,86.00
2018-04-30T21:04:42.546Z,87.20
2018-04-30T21:07:10.843Z,85.40
2018-04-30T21:09:39.147Z,85.20
2018-04-30T21:12:07.423Z,87.20
2018-04-30T21:14:35.759Z,86.20
2018-04-30T21:17:04.043Z,86.20
2018-04-30T21:19:32.094Z,86.30
2018-04-30T21:22:00.743Z,86.00
2018-04-30T21:24:29.042Z,86.00
2018-04-30T21:26:57.533Z,85.70
2018-04-30T21:29:25.808Z,85.50
2018-04-30T21:31:54.143Z,85.60
2018-04-30T21:34:22.456Z,85.20
2018-04-30T21:36:51.497Z,86.40
2018-04-30T21:39:20.075Z,87.10
2018-04-30T21:41:49.079Z,85.10
2018-04-30T21:44:17.401Z,85.70
2018-04-30T21:46:45.601Z,86.50
2018-04-30T21:49:13.922Z,87.60
2018-04-30T21:51:42.528Z,88.10
2018-04-30T21:54:13.279Z,88.60
2018-04-30T21:56:43.095Z,89.20
2018-04-30T21:59:11.394Z,88.80
2018-04-30T22:01:40.331Z,89.70
2018-04-30T22:04:08.734Z,89.60
2018-04-30T22:06:37.014Z,89.10
2018-04-30T22:09:05.945Z,90.20
2018-04-30T22:11:34.270Z,88.60
2018-04-30T22:14:02.554Z,90.60
2018-04-30T22:16:30.838Z,89.10
2018-04-30T22:18:59.742Z,89.00
2018-04-30T22:21:28.027Z,89.10
2018-04-30T22:23:56.415Z,90.10
2018-04-30T22:26:25.078Z,88.90
2018-04-30T22:28:53.794Z,89.90
2018-04-30T22:31:22.079Z,89.80
2018-04-30T22:33:50.612Z,90.40
2018-04-30T22:36:19.439Z,90.40
2018-04-30T22:38:47.718Z,90.50
2018-04-30T22:41:16.043Z,90.20
2018-04-30T22:43:44.322Z,90.20
2018-04-30T22:46:13.127Z,90.40
2018-04-30T22:48:41.648Z,91.30
2018-04-30T22:51:09.931Z,90.90
2018-04-30T22:53:38.590Z,91.20
2018-04-30T22:56:06.886Z,91.40
2018-04-30T22:58:36.156Z,92.30
2018-04-30T23:01:04.478Z,92.30
2018-04-30T23:03:32.757Z,93.20
2018-04-30T23:06:01.037Z,93.20
2018-04-30T23:08:29.414Z,94.10
2018-04-30T23:10:57.695Z,93.40
2018-04-30T23:13:25.978Z,94.00
2018-04-30T23:15:54.282Z,94.60
2018-04-30T23:18:22.474Z,94.10
2018-04-30T23:20:52.408Z,94.50
2018-04-30T23:23:20.692Z,94.60
2018-04-30T23:25:49.347Z,94.30
2018-04-30T23:28:17.628Z,94.20
2018-04-30T23:30:48.074Z,94.50
2018-04-30T23:33:16.699Z,95.20
2018-04-30T23:35:46.879Z,94.80
2018-04-30T23:38:15.483Z,94.70
2018-04-30T23:40:43.795Z,94.70
2018-04-30T23:43:12.888Z,94.80
2018-04-30T23:45:41.427Z,94.80
2018-04-30T23:48:10.216Z,94.80
2018-04-30T23:50:38.498Z,94.80
2018-04-30T23:53:06.852Z,94.80
2018-04-30T23:55:35.267Z,94.80
2018-04-30T23:58:04.715Z,94.60
